createdAt,value
2019-02-10T00:00:37.164Z,15.73
2019-02-10T00:03:05.342Z,18.70
2019-02-10T00:05:33.517Z,18.83
2019-02-10T00:08:01.703Z,18.17
2019-02-10T00:10:29.875Z,18.43
2019-02-10T00:13:29.047Z,15.77
2019-02-10T00:15:59.924Z,16.40
2019-02-10T00:18:28.100Z,18.03
2019-02-10T00:20:56.267Z,18.07
2019-02-10T00:23:24.454Z,13.03
2019-02-10T00:25:52.633Z,17.13
2019-02-10T00:28:20.812Z,17.43
2019-02-10T00:30:48.982Z,16.13
2019-02-10T00:33:17.149Z,15.10
2019-02-10T00:35:45.408Z,14.60
2019-02-10T00:38:13.574Z,15.70
2019-02-10T00:40:41.754Z,16.67
2019-02-10T00:43:09.946Z,15.20
2019-02-10T00:45:38.122Z,17.13
2019-02-10T00:48:06.311Z,20.83
2019-02-10T00:50:34.488Z,17.67
2019-02-10T00:53:02.675Z,17.20
2019-02-10T00:55:30.842Z,17.50
2019-02-10T00:57:59.050Z,19.83
2019-02-10T01:00:27.238Z,16.80
2019-02-10T01:02:55.412Z,15.50
2019-02-10T01:05:23.592Z,15.40
2019-02-10T01:07:52.030Z,16.63
2019-02-10T01:10:20.988Z,18.50
2019-02-10T01:12:49.169Z,14.30
2019-02-10T01:15:17.347Z,17.43
2019-02-10T01:17:45.535Z,17.80
2019-02-10T01:20:13.715Z,14.70
2019-02-10T01:22:41.893Z,18.10
2019-02-10T01:25:10.066Z,14.73
2019-02-10T01:27:38.239Z,15.63
2019-02-10T01:30:09.808Z,17.70
2019-02-10T01:32:38.026Z,16.53
2019-02-10T01:35:06.157Z,20.80
2019-02-10T01:37:34.333Z,21.23
2019-02-10T01:40:02.534Z,19.73
2019-02-10T01:42:30.707Z,18.80
2019-02-10T01:44:58.886Z,17.17
2019-02-10T01:47:27.064Z,16.23
2019-02-10T01:49:55.243Z,16.07
2019-02-10T01:52:23.416Z,16.53
2019-02-10T01:54:51.611Z,16.30
2019-02-10T01:57:19.793Z,17.37
2019-02-10T01:59:47.963Z,15.33
2019-02-10T02:02:16.138Z,17.03
2019-02-10T02:04:44.391Z,18.70
2019-02-10T02:07:12.580Z,14.50
2019-02-10T02:09:40.771Z,20.90
2019-02-10T02:12:09.116Z,16.80
2019-02-10T02:14:37.298Z,18.20
2019-02-10T02:17:05.479Z,20.27
2019-02-10T02:19:33.667Z,19.07
2019-02-10T02:22:01.841Z,17.53
2019-02-10T02:24:30.054Z,18.00
2019-02-10T02:26:58.232Z,20.50
2019-02-10T02:29:26.408Z,15.70
2019-02-10T02:31:54.580Z,18.73
2019-02-10T02:34:22.752Z,17.40
2019-02-10T02:36:50.932Z,16.93
2019-02-10T02:39:19.120Z,20.80
2019-02-10T02:41:47.308Z,20.57
2019-02-10T02:44:15.502Z,19.87
2019-02-10T02:46:43.685Z,20.03
2019-02-10T02:49:11.859Z,18.37
2019-02-10T02:51:40.047Z,18.90
2019-02-10T02:54:08.228Z,18.80
2019-02-10T02:56:36.439Z,18.00
2019-02-10T02:59:04.620Z,16.00
2019-02-10T03:01:32.795Z,20.97
2019-02-10T03:04:00.971Z,19.27
2019-02-10T03:06:30.793Z,19.73
2019-02-10T03:09:00.605Z,15.63
2019-02-10T03:11:28.789Z,16.10
2019-02-10T03:13:58.628Z,15.27
2019-02-10T03:16:26.809Z,16.63
2019-02-10T03:18:54.993Z,17.87
2019-02-10T03:21:23.230Z,16.10
2019-02-10T03:23:51.411Z,16.83
2019-02-10T03:26:19.624Z,16.33
2019-02-10T03:28:47.828Z,17.17
2019-02-10T03:31:16.016Z,14.17
2019-02-10T03:33:44.198Z,16.37
2019-02-10T03:36:12.461Z,18.63
2019-02-10T03:38:40.650Z,16.43
2019-02-10T03:41:08.845Z,17.50
2019-02-10T03:43:37.021Z,19.20
2019-02-10T03:46:05.217Z,15.67
2019-02-10T03:48:33.384Z,17.10
2019-02-10T03:51:01.569Z,17.53
2019-02-10T03:53:29.792Z,18.43
2019-02-10T03:55:57.975Z,17.60
2019-02-10T03:58:26.159Z,17.93
2019-02-10T04:00:54.362Z,17.20
2019-02-10T04:03:22.548Z,17.00
2019-02-10T04:05:50.729Z,18.03
2019-02-10T04:08:18.907Z,20.00
2019-02-10T04:10:47.115Z,18.80
2019-02-10T04:13:15.293Z,19.47
2019-02-10T04:15:43.476Z,18.83
2019-02-10T04:18:11.659Z,20.83
2019-02-10T04:20:39.837Z,19.47
2019-02-10T04:23:09.382Z,18.33
2019-02-10T04:25:37.566Z,19.67
2019-02-10T04:28:05.750Z,19.43
2019-02-10T04:30:33.951Z,19.47
2019-02-10T04:33:02.163Z,23.23
2019-02-10T04:35:30.368Z,20.90
2019-02-10T04:37:58.550Z,21.70
2019-02-10T04:40:26.723Z,20.97
2019-02-10T04:42:54.968Z,20.23
2019-02-10T04:45:23.187Z,19.20
2019-02-10T04:47:51.360Z,20.17
2019-02-10T04:50:19.588Z,20.37
2019-02-10T04:52:47.877Z,21.13
2019-02-10T04:55:16.066Z,21.43
2019-02-10T04:57:44.243Z,21.77
2019-02-10T05:00:12.451Z,21.53
2019-02-10T05:02:40.669Z,21.70
2019-02-10T05:05:08.852Z,23.27
2019-02-10T05:07:37.143Z,24.83
2019-02-10T05:10:05.634Z,21.43
2019-02-10T05:12:33.815Z,18.80
2019-02-10T05:15:02.001Z,20.90
2019-02-10T05:17:30.213Z,18.03
2019-02-10T05:19:58.426Z,20.00
2019-02-10T05:22:26.687Z,20.53
2019-02-10T05:24:54.914Z,18.70
2019-02-10T05:27:23.114Z,17.13
2019-02-10T05:29:51.324Z,16.80
2019-02-10T05:32:19.513Z,16.50
2019-02-10T05:34:47.737Z,17.67
2019-02-10T05:37:15.953Z,17.10
2019-02-10T05:39:44.132Z,20.40
2019-02-10T05:42:12.353Z,17.43
2019-02-10T05:44:40.527Z,18.63
2019-02-10T05:47:08.707Z,18.27
2019-02-10T05:49:36.883Z,22.97
2019-02-10T05:52:05.103Z,17.53
2019-02-10T05:54:33.278Z,16.77
2019-02-10T05:57:01.468Z,18.33
2019-02-10T05:59:29.645Z,18.00
2019-02-10T06:02:07.463Z,17.30
2019-02-10T06:04:38.992Z,17.07
2019-02-10T06:07:13.131Z,18.40
2019-02-10T06:09:41.343Z,17.37
2019-02-10T06:12:09.554Z,16.67
2019-02-10T06:14:37.737Z,17.87
2019-02-10T06:17:05.945Z,20.03
2019-02-10T06:19:34.126Z,16.10
2019-02-10T06:22:02.303Z,15.17
2019-02-10T06:24:30.485Z,15.40
2019-02-10T06:26:58.667Z,14.17
2019-02-10T06:29:26.880Z,17.87
2019-02-10T06:31:55.089Z,18.10
2019-02-10T06:34:23.300Z,15.70
2019-02-10T06:36:51.510Z,15.57
2019-02-10T06:39:19.692Z,16.03
2019-02-10T06:41:47.893Z,16.23
2019-02-10T06:44:16.079Z,17.63
2019-02-10T06:46:44.260Z,15.00
2019-02-10T06:49:12.437Z,18.40
2019-02-10T06:51:40.613Z,14.83
2019-02-10T06:54:08.798Z,15.33
2019-02-10T06:56:36.985Z,15.43
2019-02-10T06:59:06.805Z,14.40
2019-02-10T07:01:39.528Z,17.27
2019-02-10T07:04:10.910Z,13.57
2019-02-10T07:06:39.085Z,13.17
2019-02-10T07:09:07.269Z,14.63
2019-02-10T07:11:35.439Z,14.70
2019-02-10T07:14:03.628Z,17.43
2019-02-10T07:16:43.879Z,15.77
2019-02-10T07:19:48.340Z,17.13
2019-02-10T07:22:34.747Z,17.00
2019-02-10T07:25:15.141Z,15.23
2019-02-10T07:27:43.860Z,15.53
2019-02-10T07:30:18.298Z,17.07
2019-02-10T07:32:55.288Z,15.67
2019-02-10T07:35:45.029Z,14.77
2019-02-10T07:38:38.525Z,15.07
2019-02-10T07:41:29.919Z,14.20
2019-02-10T07:44:13.433Z,16.20
2019-02-10T07:47:07.452Z,14.60
2019-02-10T07:49:47.634Z,12.53
2019-02-10T07:52:31.181Z,13.10
2019-02-10T07:55:05.336Z,14.03
2019-02-10T07:57:52.891Z,13.30
2019-02-10T08:00:27.164Z,12.20
2019-02-10T08:03:21.104Z,15.33
2019-02-10T08:06:08.947Z,15.90
2019-02-10T08:08:52.788Z,11.03
2019-02-10T08:11:45.412Z,12.60
2019-02-10T08:14:16.851Z,11.43
2019-02-10T08:17:00.109Z,12.33
2019-02-10T08:19:55.976Z,14.20
2019-02-10T08:22:44.276Z,14.17
2019-02-10T08:25:18.396Z,12.07
2019-02-10T08:27:49.891Z,12.00
2019-02-10T08:30:33.022Z,12.17
2019-02-10T08:33:13.166Z,13.33
2019-02-10T08:35:53.574Z,9.73
2019-02-10T08:38:42.552Z,10.97
2019-02-10T08:41:19.746Z,14.00
2019-02-10T08:44:12.114Z,9.80
2019-02-10T08:46:58.552Z,11.50
2019-02-10T08:49:32.753Z,11.60
2019-02-10T08:52:21.988Z,12.27
2019-02-10T08:54:50.202Z,11.50
2019-02-10T08:57:18.415Z,12.50
2019-02-10T08:59:46.586Z,11.53
2019-02-10T09:02:14.800Z,12.83
2019-02-10T09:04:42.972Z,11.53
2019-02-10T09:07:11.142Z,12.73
2019-02-10T09:09:39.335Z,12.57
2019-02-10T09:12:07.541Z,13.03
2019-02-10T09:14:35.743Z,15.87
2019-02-10T09:17:03.947Z,13.70
2019-02-10T09:19:32.151Z,10.53
2019-02-10T09:22:00.324Z,11.00
2019-02-10T09:24:28.498Z,11.73
2019-02-10T09:26:56.672Z,12.37
2019-02-10T09:29:24.843Z,11.30
2019-02-10T09:31:53.019Z,12.80
2019-02-10T09:34:21.191Z,15.43
2019-02-10T09:36:49.372Z,13.63
2019-02-10T09:39:17.583Z,12.80
2019-02-10T09:41:45.770Z,12.63
2019-02-10T09:44:13.930Z,12.37
2019-02-10T09:46:42.131Z,12.50
2019-02-10T09:49:10.376Z,12.20
2019-02-10T09:51:38.584Z,13.33
2019-02-10T09:54:06.868Z,14.10
2019-02-10T09:56:35.042Z,10.53
2019-02-10T09:59:03.214Z,9.53
2019-02-10T10:01:31.390Z,13.10
2019-02-10T10:03:59.573Z,15.63
2019-02-10T10:06:27.770Z,13.17
2019-02-10T10:08:55.971Z,11.87
2019-02-10T10:11:24.143Z,12.87
2019-02-10T10:13:55.201Z,15.13
2019-02-10T10:16:23.444Z,13.33
2019-02-10T10:18:51.619Z,12.87
2019-02-10T10:21:19.800Z,14.73
2019-02-10T10:23:48.013Z,14.43
2019-02-10T10:26:16.206Z,16.27
2019-02-10T10:28:44.442Z,14.33
2019-02-10T10:31:12.614Z,13.77
2019-02-10T10:33:40.795Z,18.70
2019-02-10T10:36:08.967Z,18.10
2019-02-10T10:38:37.148Z,13.43
2019-02-10T10:41:05.326Z,14.83
2019-02-10T10:43:33.591Z,14.83
2019-02-10T10:46:01.762Z,13.53
2019-02-10T10:48:29.951Z,15.37
2019-02-10T10:50:58.159Z,15.30
2019-02-10T10:53:26.347Z,16.73
2019-02-10T10:55:54.552Z,14.83
2019-02-10T10:58:22.730Z,13.13
2019-02-10T11:00:50.911Z,15.77
2019-02-10T11:03:19.124Z,14.23
2019-02-10T11:05:47.319Z,14.37
2019-02-10T11:08:15.502Z,13.23
2019-02-10T11:10:43.707Z,15.63
2019-02-10T11:13:11.890Z,13.47
2019-02-10T11:15:40.067Z,14.63
2019-02-10T11:18:08.251Z,15.47
2019-02-10T11:20:36.447Z,18.87
2019-02-10T11:23:04.644Z,14.83
2019-02-10T11:25:32.820Z,15.00
2019-02-10T11:28:01.036Z,13.47
2019-02-10T11:30:29.228Z,15.20
2019-02-10T11:32:58.379Z,15.37
2019-02-10T11:35:26.551Z,16.60
2019-02-10T11:37:54.754Z,17.00
2019-02-10T11:40:22.971Z,16.90
2019-02-10T11:42:51.199Z,15.97
2019-02-10T11:45:19.427Z,15.60
2019-02-10T11:47:47.604Z,15.60
2019-02-10T11:50:15.788Z,14.17
2019-02-10T11:52:43.972Z,16.63
2019-02-10T11:55:12.179Z,13.33
2019-02-10T11:57:40.391Z,16.97
2019-02-10T12:00:16.800Z,14.13
2019-02-10T12:02:44.999Z,12.90
2019-02-10T12:05:13.201Z,14.80
2019-02-10T12:07:41.389Z,15.33
2019-02-10T12:10:11.968Z,13.70
2019-02-10T12:12:40.190Z,14.30
2019-02-10T12:15:10.596Z,15.30
2019-02-10T12:17:38.794Z,14.47
2019-02-10T12:20:10.196Z,13.60
2019-02-10T12:22:38.412Z,12.43
2019-02-10T12:25:07.885Z,12.60
2019-02-10T12:27:36.684Z,11.90
2019-02-10T12:30:14.011Z,11.33
2019-02-10T12:32:42.184Z,12.23
2019-02-10T12:35:12.822Z,10.90
2019-02-10T12:37:41.000Z,16.20
2019-02-10T12:40:10.421Z,27.97
2019-02-10T12:42:38.635Z,13.67
2019-02-10T12:45:09.171Z,12.93
2019-02-10T12:47:37.349Z,14.63
2019-02-10T12:50:11.221Z,11.20
2019-02-10T12:52:39.439Z,13.20
2019-02-10T12:55:08.764Z,12.97
2019-02-10T12:57:36.943Z,14.50
2019-02-10T13:00:13.688Z,13.43
2019-02-10T13:02:41.893Z,17.77
2019-02-10T13:05:10.195Z,13.50
2019-02-10T13:07:40.941Z,12.83
2019-02-10T13:10:11.952Z,12.37
2019-02-10T13:12:40.128Z,12.57
2019-02-10T13:15:09.845Z,11.43
2019-02-10T13:17:38.116Z,15.47
2019-02-10T13:20:09.057Z,15.57
2019-02-10T13:22:37.306Z,14.53
2019-02-10T13:25:08.037Z,11.03
2019-02-10T13:27:36.271Z,11.83
2019-02-10T13:30:07.546Z,11.30
2019-02-10T13:32:35.771Z,12.33
2019-02-10T13:35:04.379Z,14.00
2019-02-10T13:37:32.622Z,12.30
2019-02-10T13:40:01.256Z,14.30
2019-02-10T13:42:29.525Z,14.43
2019-02-10T13:44:58.118Z,10.97
2019-02-10T13:47:33.446Z,12.57
2019-02-10T13:50:06.014Z,14.17
2019-02-10T13:52:36.581Z,15.50
2019-02-10T13:55:06.897Z,13.83
2019-02-10T13:57:38.047Z,12.47
2019-02-10T14:00:18.079Z,11.17
2019-02-10T14:02:46.301Z,12.78
2019-02-10T14:05:14.561Z,14.33
2019-02-10T14:07:43.036Z,14.63
2019-02-10T14:10:13.538Z,10.93
2019-02-10T14:12:42.189Z,11.97
2019-02-10T14:15:15.320Z,12.47
2019-02-10T14:17:46.714Z,8.90
2019-02-10T14:20:23.465Z,9.47
2019-02-10T14:22:51.685Z,10.73
2019-02-10T14:25:20.054Z,10.90
2019-02-10T14:27:48.254Z,9.63
2019-02-10T14:30:24.021Z,9.17
2019-02-10T14:32:52.201Z,9.80
2019-02-10T14:35:20.367Z,8.37
2019-02-10T14:37:48.539Z,10.10
2019-02-10T14:40:16.715Z,8.87
2019-02-10T14:42:44.886Z,8.60
2019-02-10T14:45:14.328Z,10.40
2019-02-10T14:47:42.499Z,9.93
2019-02-10T14:50:17.050Z,9.43
2019-02-10T14:52:46.219Z,11.77
2019-02-10T14:55:14.426Z,13.30
2019-02-10T14:57:42.635Z,9.20
2019-02-10T15:00:14.801Z,9.13
2019-02-10T15:02:42.976Z,8.73
2019-02-10T15:05:11.225Z,10.80
2019-02-10T15:07:47.710Z,10.80
2019-02-10T15:10:18.168Z,15.23
2019-02-10T15:12:46.358Z,9.97
2019-02-10T15:15:14.573Z,11.67
2019-02-10T15:17:44.722Z,10.23
2019-02-10T15:20:13.766Z,11.07
2019-02-10T15:22:41.952Z,10.07
2019-02-10T15:25:13.838Z,10.77
2019-02-10T15:27:42.042Z,11.80
2019-02-10T15:30:15.333Z,10.80
2019-02-10T15:32:44.443Z,11.07
2019-02-10T15:35:12.614Z,8.73
2019-02-10T15:37:40.806Z,16.27
2019-02-10T15:40:10.632Z,13.20
2019-02-10T15:42:38.815Z,11.40
2019-02-10T15:45:12.113Z,12.33
2019-02-10T15:47:40.310Z,12.17
2019-02-10T15:50:14.489Z,10.37
2019-02-10T15:52:42.664Z,11.73
2019-02-10T15:55:12.192Z,9.80
2019-02-10T15:57:40.372Z,10.67
2019-02-10T16:00:11.907Z,16.53
2019-02-10T16:02:40.104Z,14.57
2019-02-10T16:05:08.278Z,14.60
2019-02-10T16:07:36.452Z,9.83
2019-02-10T16:10:09.227Z,10.50
2019-02-10T16:12:37.514Z,13.13
2019-02-10T16:15:07.535Z,12.90
2019-02-10T16:17:35.742Z,14.83
2019-02-10T16:20:06.262Z,14.30
2019-02-10T16:22:34.450Z,15.90
2019-02-10T16:25:02.615Z,14.63
2019-02-10T16:27:30.817Z,19.30
2019-02-10T16:29:58.995Z,16.00
2019-02-10T16:32:27.203Z,12.67
2019-02-10T16:34:55.385Z,13.63
2019-02-10T16:37:23.587Z,20.17
2019-02-10T16:39:51.802Z,14.63
2019-02-10T16:42:20.003Z,15.60
2019-02-10T16:44:48.289Z,14.37
2019-02-10T16:47:16.471Z,21.57
2019-02-10T16:49:44.706Z,19.83
2019-02-10T16:52:12.908Z,18.73
2019-02-10T16:54:41.086Z,19.03
2019-02-10T16:57:09.298Z,23.43
2019-02-10T16:59:43.281Z,35.53
2019-02-10T17:02:11.469Z,21.57
2019-02-10T17:04:40.542Z,26.37
2019-02-10T17:07:08.720Z,20.77
2019-02-10T17:09:37.821Z,21.73
2019-02-10T17:12:06.004Z,21.47
2019-02-10T17:14:34.200Z,22.07
2019-02-10T17:17:02.381Z,22.70
2019-02-10T17:19:30.599Z,26.50
2019-02-10T17:21:58.774Z,97.37
2019-02-10T17:24:27.006Z,39.17
2019-02-10T17:26:55.242Z,24.67
2019-02-10T17:29:24.208Z,25.33
2019-02-10T17:31:52.388Z,26.53
2019-02-10T17:34:20.581Z,25.50
2019-02-10T17:36:48.779Z,23.33
2019-02-10T17:39:16.949Z,30.40
2019-02-10T17:41:45.520Z,26.80
2019-02-10T17:44:15.655Z,32.73
2019-02-10T17:46:43.874Z,23.97
2019-02-10T17:49:12.053Z,25.37
2019-02-10T17:51:40.231Z,30.60
2019-02-10T17:54:08.407Z,26.40
2019-02-10T17:56:36.590Z,21.87
2019-02-10T17:59:04.769Z,28.83
2019-02-10T18:01:32.955Z,33.23
2019-02-10T18:04:01.173Z,29.50
2019-02-10T18:06:29.361Z,21.77
2019-02-10T18:08:57.590Z,22.90
2019-02-10T18:11:30.895Z,25.30
2019-02-10T18:13:55.722Z,26.90
2019-02-10T18:16:28.286Z,24.60
2019-02-10T18:19:04.071Z,29.37
2019-02-10T18:21:33.891Z,16.73
2019-02-10T18:24:06.695Z,11.37
2019-02-10T18:26:39.295Z,9.17
2019-02-10T18:29:25.407Z,9.00
2019-02-10T18:31:58.133Z,6.67
2019-02-10T18:34:36.730Z,5.70
2019-02-10T18:37:22.998Z,4.17
2019-02-10T18:40:08.937Z,4.00
2019-02-10T18:42:50.952Z,4.43
2019-02-10T18:45:23.827Z,4.53
2019-02-10T18:47:59.351Z,4.27
2019-02-10T18:50:29.300Z,3.93
2019-02-10T18:53:01.765Z,3.00
2019-02-10T18:55:31.573Z,3.43
2019-02-10T18:58:17.874Z,4.13
2019-02-10T19:01:04.134Z,2.60
2019-02-10T19:03:36.909Z,3.33
2019-02-10T19:06:18.457Z,2.80
2019-02-10T19:09:04.448Z,4.17
2019-02-10T19:11:50.843Z,4.07
2019-02-10T19:14:30.803Z,1.33
2019-02-10T19:17:00.620Z,2.40
2019-02-10T19:19:30.436Z,1.47
2019-02-10T19:22:00.295Z,1.47
2019-02-10T19:24:30.198Z,1.23
2019-02-10T19:27:02.533Z,1.00
2019-02-10T19:29:32.348Z,1.67
2019-02-10T19:32:04.497Z,2.00
2019-02-10T19:34:50.451Z,1.27
2019-02-10T19:37:29.493Z,1.60
2019-02-10T19:40:05.241Z,1.00
2019-02-10T19:42:35.053Z,0.50
2019-02-10T19:45:06.115Z,0.67
2019-02-10T19:47:35.928Z,0.60
2019-02-10T19:50:07.271Z,0.70
2019-02-10T19:52:43.061Z,0.50
2019-02-10T19:55:21.942Z,1.50
2019-02-10T19:57:57.474Z,0.60
2019-02-10T20:00:27.310Z,0.30
2019-02-10T20:02:59.934Z,0.67
2019-02-10T20:05:29.749Z,1.10
2019-02-10T20:07:59.695Z,0.57
2019-02-10T20:10:34.965Z,0.20
2019-02-10T20:13:07.792Z,1.10
2019-02-10T20:15:55.934Z,2.00
2019-02-10T20:18:31.693Z,0.20
2019-02-10T20:21:03.918Z,1.60
2019-02-10T20:23:35.682Z,1.90
2019-02-10T20:26:38.409Z,0.40
2019-02-10T20:29:08.214Z,0.50
2019-02-10T20:31:50.337Z,0.87
2019-02-10T20:34:25.987Z,1.97
2019-02-10T20:36:58.588Z,0.70
2019-02-10T20:39:28.345Z,1.60
2019-02-10T20:41:58.218Z,0.70
2019-02-10T20:44:33.424Z,0.27
2019-02-10T20:47:06.004Z,0.93
2019-02-10T20:49:35.853Z,0.40
2019-02-10T20:52:05.826Z,1.03
2019-02-10T20:54:38.355Z,0.63
2019-02-10T20:57:16.954Z,0.30
2019-02-10T20:59:52.556Z,0.70
2019-02-10T21:02:25.080Z,0.40
2019-02-10T21:04:57.654Z,0.63
2019-02-10T21:07:44.104Z,0.83
2019-02-10T21:10:25.096Z,1.07
2019-02-10T21:12:54.901Z,0.63
2019-02-10T21:15:36.988Z,0.90
2019-02-10T21:18:06.799Z,0.50
2019-02-10T21:20:36.681Z,0.47
2019-02-10T21:23:06.445Z,1.07
2019-02-10T21:25:42.002Z,1.57
2019-02-10T21:28:23.680Z,0.63
2019-02-10T21:31:08.238Z,0.50
2019-02-10T21:33:38.046Z,0.67
2019-02-10T21:36:07.885Z,1.40
2019-02-10T21:38:40.379Z,0.93
2019-02-10T21:41:15.687Z,0.70
2019-02-10T21:43:51.100Z,0.67
2019-02-10T21:46:29.670Z,0.57
2019-02-10T21:48:59.318Z,0.70
2019-02-10T21:51:27.496Z,1.43
2019-02-10T21:53:55.667Z,1.00
2019-02-10T21:56:23.837Z,0.90
2019-02-10T21:58:52.018Z,1.33
2019-02-10T22:01:20.217Z,0.77
2019-02-10T22:03:48.424Z,0.80
2019-02-10T22:06:16.749Z,1.30
2019-02-10T22:08:44.853Z,0.97
2019-02-10T22:11:13.024Z,0.87
2019-02-10T22:13:41.231Z,0.73
2019-02-10T22:16:09.676Z,0.70
2019-02-10T22:18:37.864Z,0.53
2019-02-10T22:21:06.060Z,1.40
2019-02-10T22:23:34.314Z,0.80
2019-02-10T22:26:02.492Z,1.27
2019-02-10T22:28:30.668Z,0.70
2019-02-10T22:30:58.835Z,0.60
2019-02-10T22:33:27.004Z,0.47
2019-02-10T22:35:55.212Z,0.73
2019-02-10T22:38:23.377Z,1.87
2019-02-10T22:40:51.582Z,0.97
2019-02-10T22:43:19.763Z,0.37
2019-02-10T22:45:47.926Z,2.37
2019-02-10T22:48:16.162Z,0.80
2019-02-10T22:50:44.328Z,0.77
2019-02-10T22:53:12.497Z,1.90
2019-02-10T22:55:40.669Z,1.27
2019-02-10T22:58:08.838Z,0.80
2019-02-10T23:00:43.879Z,0.90
2019-02-10T23:03:12.222Z,1.83
2019-02-10T23:05:40.428Z,0.30
2019-02-10T23:08:08.633Z,1.23
2019-02-10T23:10:36.793Z,0.40
2019-02-10T23:13:04.961Z,0.50
2019-02-10T23:15:33.132Z,1.30
2019-02-10T23:18:01.309Z,1.13
2019-02-10T23:20:29.509Z,0.50
2019-02-10T23:22:57.714Z,0.63
2019-02-10T23:25:25.895Z,1.70
2019-02-10T23:27:54.068Z,0.47
2019-02-10T23:30:22.239Z,0.93
2019-02-10T23:32:49.568Z,0.97
2019-02-10T23:35:17.755Z,1.07
2019-02-10T23:37:45.923Z,0.47
2019-02-10T23:40:14.132Z,0.43
2019-02-10T23:42:42.337Z,0.40
2019-02-10T23:45:10.504Z,0.33
2019-02-10T23:47:38.693Z,0.40
2019-02-10T23:50:07.838Z,0.93
2019-02-10T23:52:35.971Z,0.33
2019-02-10T23:55:04.677Z,0.63
2019-02-10T23:57:32.858Z,0.40
